Time;durP1;ratioP1;P1;durP2;ratioP2;P2;SDS_P1;SDS_P2;PMS_P1;PMS_P2;Temp;Humidity;BMP_temperature;BMP_pressure;BME280_temperature;BME280_humidity;BME280_pressure;Samples;Min_cycle;Max_cycle;Signal;HPM_P1;HPM_P2
2023/12/06 00:02:10;;;;;;;;;;;;;;;-140.72;100.00;55561.59;5091504;28;20446;-73
2023/12/06 00:04:35;;;;;;;;;;;;;;;-140.72;100.00;55577.84;5094841;28;19923;-73
2023/12/06 00:07:01;;;;;;;;;;;;;;;-140.72;100.00;55573.78;5104877;28;19989;-73
2023/12/06 00:09:26;;;;;;;;;;;;;;;-140.72;100.00;55523.03;5079771;28;19927;-71
2023/12/06 00:11:51;;;;;;;;;;;;;;;-140.72;100.00;55529.13;5075907;28;19924;-72
2023/12/06 00:14:16;;;;;;;;;;;;;;;-140.72;100.00;55539.28;5085328;28;19928;-73
2023/12/06 00:16:41;;;;;;;;;;;;;;;-140.72;100.00;55508.81;5100453;28;20700;-73
2023/12/06 00:19:07;;;;;;;;;;;;;;;-140.72;100.00;55549.44;5095144;28;20043;-72
2023/12/06 00:21:32;;;;;;;;;;;;;;;-140.72;100.00;55516.94;5096208;28;19951;-72
2023/12/06 00:23:58;;;;;;;;;;;;;;;-140.72;100.00;55527.09;5099932;28;19967;-72
2023/12/06 00:26:23;;;;;;;;;;;;;;;-140.72;100.00;55512.88;5096962;28;20011;-72
2023/12/06 00:28:48;;;;;;;;;;;;;;;-140.72;100.00;55516.94;5101216;28;19962;-72
2023/12/06 00:31:13;;;;;;;;;;;;;;;-140.72;100.00;55504.75;5096656;28;20376;-72
2023/12/06 00:33:38;;;;;;;;;;;;;;;-140.72;100.00;55480.38;5078966;28;19920;-72
2023/12/06 00:36:04;;;;;;;;;;;;;;;-140.72;100.00;55482.41;5089451;28;20294;-73
2023/12/06 00:38:30;;;;;;;;;;;;;;;-140.72;100.00;55460.06;5077859;28;19943;-73
2023/12/06 00:40:56;;;;;;;;;;;;;;;-140.72;100.00;55439.75;5089467;28;19973;-72
2023/12/06 00:43:21;;;;;;;;;;;;;;;-140.72;100.00;55449.91;5088687;28;19962;-73
2023/12/06 00:45:46;;;;;;;;;;;;;;;-140.72;100.00;55413.38;5095482;28;19953;-73
2023/12/06 00:48:12;;;;;;;;;;;;;;;-140.72;100.00;55435.72;5093133;28;19951;-73
2023/12/06 00:50:37;;;;;;;;;;;;;;;-140.72;100.00;55419.47;5091780;28;20288;-73
2023/12/06 00:53:02;;;;;;;;;;;;;;;-140.72;100.00;55427.59;5095330;28;19927;-73
2023/12/06 00:55:27;;;;;;;;;;;;;;;-140.72;100.00;55429.63;5089738;28;19928;-73
2023/12/06 00:57:53;;;;;;;;;;;;;;;-140.72;100.00;55417.44;5100711;28;19928;-73
2023/12/06 01:00:18;;;;;;;;;;;;;;;-140.72;100.00;55415.41;5093164;28;19930;-73
2023/12/06 01:02:43;;;;;;;;;;;;;;;-140.72;100.00;55421.50;5092527;28;19926;-73
2023/12/06 01:05:09;;;;;;;;;;;;;;;-140.72;100.00;55447.88;5105338;28;19934;-73
2023/12/06 01:07:34;;;;;;;;;;;;;;;-140.72;100.00;55417.44;5104239;28;20023;-73
2023/12/06 01:09:59;;;;;;;;;;;;;;;-140.72;100.00;55409.31;5092837;28;20298;-73
2023/12/06 01:12:25;;;;;;;;;;;;;;;-140.72;100.00;55405.25;5082253;28;20340;-73
2023/12/06 01:14:50;;;;;;;;;;;;;;;-140.72;100.00;55419.47;5090051;28;19924;-73
2023/12/06 01:17:15;;;;;;;;;;;;;;;-140.72;100.00;55439.75;5095073;28;20373;-73
2023/12/06 01:19:40;;;;;;;;;;;;;;;-140.72;100.00;55496.63;5093629;28;20289;-73
2023/12/06 01:22:06;;;;;;;;;;;;;;;-140.72;100.00;55437.75;5079605;28;20344;-72
2023/12/06 01:24:31;;;;;;;;;;;;;;;-140.72;100.00;55445.84;5107185;28;20335;-73
2023/12/06 01:26:56;;;;;;;;;;;;;;;-140.72;100.00;55480.38;5108140;28;19928;-73
2023/12/06 01:29:21;;;;;;;;;;;;;;;-140.72;100.00;55468.19;5102080;28;20391;-72
2023/12/06 01:31:47;;;;;;;;;;;;;;;-140.72;100.00;55439.75;5081829;28;20333;-73
2023/12/06 01:34:12;;;;;;;;;;;;;;;-140.72;100.00;55464.13;5093341;28;20014;-73
2023/12/06 01:36:37;;;;;;;;;;;;;;;-140.72;100.00;55456.00;5099723;28;19930;-73
2023/12/06 01:39:03;;;;;;;;;;;;;;;-140.72;100.00;55525.06;5102642;28;19969;-73
2023/12/06 01:41:28;;;;;;;;;;;;;;;-140.72;100.00;55504.75;5106751;28;19928;-73
2023/12/06 01:43:54;;;;;;;;;;;;;;;-140.72;100.00;55502.72;5102626;28;19919;-73
2023/12/06 01:46:19;;;;;;;;;;;;;;;-140.72;100.00;55531.16;5095985;28;19920;-73
2023/12/06 01:48:46;;;;;;;;;;;;;;;-140.72;100.00;55539.28;5102830;28;19931;-73
2023/12/06 01:51:12;;;;;;;;;;;;;;;-140.72;100.00;55510.84;5099709;28;20288;-73
2023/12/06 01:53:38;;;;;;;;;;;;;;;-140.72;100.00;55494.59;5079284;28;19920;-72
2023/12/06 01:56:05;;;;;;;;;;;;;;;-140.72;100.00;55516.94;5095469;28;20413;-73
2023/12/06 01:58:31;;;;;;;;;;;;;;;-140.72;100.00;55541.31;5093592;28;19920;-73
2023/12/06 02:00:56;;;;;;;;;;;;;;;-140.72;100.00;55506.78;5079119;28;20013;-73
2023/12/06 02:03:22;;;;;;;;;;;;;;;-140.72;100.00;55531.16;5077845;28;20389;-73
2023/12/06 02:05:47;;;;;;;;;;;;;;;-140.72;100.00;55531.16;5097152;28;19988;-73
2023/12/06 02:08:13;;;;;;;;;;;;;;;-140.72;100.00;55539.28;5093499;28;19920;-73
2023/12/06 02:10:38;;;;;;;;;;;;;;;-140.72;100.00;55573.78;5082474;28;19931;-73
2023/12/06 02:13:03;;;;;;;;;;;;;;;-140.72;100.00;55565.66;5094043;28;19993;-73
2023/12/06 02:15:28;;;;;;;;;;;;;;;-140.72;100.00;55630.66;5084076;28;19919;-73
2023/12/06 02:17:54;;;;;;;;;;;;;;;-140.72;100.00;55594.09;5101547;28;19930;-73
2023/12/06 02:20:19;;;;;;;;;;;;;;;-140.72;100.00;55628.63;5098335;28;19974;-73
2023/12/06 02:22:45;;;;;;;;;;;;;;;-140.72;100.00;55655.03;5094840;28;19928;-73
2023/12/06 02:25:11;;;;;;;;;;;;;;;-140.72;100.00;55634.72;5088824;28;19979;-73
2023/12/06 02:27:39;;;;;;;;;;;;;;;-140.72;100.00;55669.25;5092191;28;19920;-73
2023/12/06 02:30:04;;;;;;;;;;;;;;;-140.72;100.00;55673.31;5093671;28;20061;-73
2023/12/06 02:32:29;;;;;;;;;;;;;;;-140.72;100.00;55732.19;5092441;28;19924;-73
2023/12/06 02:34:56;;;;;;;;;;;;;;;-140.72;100.00;55730.16;5080879;28;19927;-73
2023/12/06 02:37:22;;;;;;;;;;;;;;;-140.72;100.00;55724.06;5099402;28;19924;-73
2023/12/06 02:39:49;;;;;;;;;;;;;;;-140.72;100.00;55766.72;5082981;28;19934;-73
2023/12/06 02:42:14;;;;;;;;;;;;;;;-140.72;100.00;55780.94;5096318;28;19924;-73
2023/12/06 02:44:39;;;;;;;;;;;;;;;-140.72;100.00;55821.56;5104469;28;19928;-73
2023/12/06 02:47:05;;;;;;;;;;;;;;;-140.72;100.00;55825.63;5107654;28;20261;-72
2023/12/06 02:49:30;;;;;;;;;;;;;;;-140.72;100.00;55809.38;5106571;28;20061;-73
2023/12/06 02:51:55;;;;;;;;;;;;;;;-140.72;100.00;55837.81;5100600;28;20333;-73
2023/12/06 02:54:20;;;;;;;;;;;;;;;-140.72;100.00;55831.72;5104560;28;19929;-73
2023/12/06 02:56:46;;;;;;;;;;;;;;;-140.72;100.00;55872.31;5095161;28;19924;-72
2023/12/06 02:59:11;;;;;;;;;;;;;;;-140.72;100.00;55917.00;5095733;28;19935;-72
2023/12/06 03:01:36;;;;;;;;;;;;;;;-140.72;100.00;55927.16;5105399;28;19923;-73
2023/12/06 03:04:01;;;;;;;;;;;;;;;-140.72;100.00;55977.94;5081703;28;19920;-73
2023/12/06 03:06:27;;;;;;;;;;;;;;;-140.72;100.00;56008.41;5104244;28;19919;-72
2023/12/06 03:08:52;;;;;;;;;;;;;;;-140.72;100.00;56008.41;5091907;28;19935;-73
2023/12/06 03:11:17;;;;;;;;;;;;;;;-140.72;100.00;56024.66;5097183;28;19920;-73
2023/12/06 03:13:42;;;;;;;;;;;;;;;-140.72;100.00;56055.09;5098883;28;19920;-72
2023/12/06 03:16:07;;;;;;;;;;;;;;;-140.72;100.00;56085.56;5102124;28;19919;-73
2023/12/06 03:18:34;;;;;;;;;;;;;;;-140.72;100.00;56065.25;5093224;28;19943;-72
2023/12/06 03:20:59;;;;;;;;;;;;;;;-140.72;100.00;56105.88;5103125;28;19927;-73
2023/12/06 03:23:24;;;;;;;;;;;;;;;-140.72;100.00;56132.28;5080147;28;19936;-72
2023/12/06 03:25:51;;;;;;;;;;;;;;;-140.72;100.00;56120.09;5101759;28;19920;-72
2023/12/06 03:28:16;;;;;;;;;;;;;;;-140.72;100.00;56095.72;5102724;28;19966;-73
2023/12/06 03:30:41;;;;;;;;;;;;;;;-140.72;100.00;56109.94;5080044;28;19967;-71
2023/12/06 03:33:07;;;;;;;;;;;;;;;-140.72;100.00;56118.06;5101025;28;19943;-72
2023/12/06 03:35:32;;;;;;;;;;;;;;;-140.72;100.00;56158.69;5078562;28;19935;-72
2023/12/06 03:37:57;;;;;;;;;;;;;;;-140.72;100.00;56134.31;5098157;28;19928;-71
2023/12/06 03:40:22;;;;;;;;;;;;;;;-140.72;100.00;56140.41;5102792;28;19920;-72
2023/12/06 03:42:48;;;;;;;;;;;;;;;-140.72;100.00;56179.00;5104763;28;20002;-72
2023/12/06 03:45:13;;;;;;;;;;;;;;;-140.72;100.00;56197.28;5086460;28;19920;-71
2023/12/06 03:47:38;;;;;;;;;;;;;;;-140.72;100.00;56146.50;5100610;28;19927;-72
2023/12/06 03:50:04;;;;;;;;;;;;;;;-140.72;100.00;56183.06;5094153;28;19991;-72
2023/12/06 03:52:30;;;;;;;;;;;;;;;-140.72;100.00;56162.75;5077420;28;20373;-72
2023/12/06 03:54:55;;;;;;;;;;;;;;;-140.72;100.00;56166.81;5092803;28;19959;-72
2023/12/06 03:57:21;;;;;;;;;;;;;;;-140.72;100.00;56211.50;5092501;28;20042;-71
2023/12/06 03:59:46;;;;;;;;;;;;;;;-140.72;100.00;56223.69;5101093;28;19973;-72
2023/12/06 04:02:11;;;;;;;;;;;;;;;-140.72;100.00;56248.06;5095505;28;19932;-72
2023/12/06 04:04:36;;;;;;;;;;;;;;;-140.72;100.00;56260.25;5077557;28;19942;-71
2023/12/06 04:07:02;;;;;;;;;;;;;;;-140.72;100.00;56256.19;5097600;28;19920;-71
2023/12/06 04:09:27;;;;;;;;;;;;;;;-140.72;100.00;56252.13;5078455;28;19920;-71
2023/12/06 04:11:54;;;;;;;;;;;;;;;-140.72;100.00;56262.28;5077467;28;19924;-72
2023/12/06 04:14:19;;;;;;;;;;;;;;;-140.72;100.00;56248.06;5076689;28;19920;-72
2023/12/06 04:16:45;;;;;;;;;;;;;;;-140.72;100.00;56231.81;5099218;28;19929;-72
2023/12/06 04:19:10;;;;;;;;;;;;;;;-140.72;100.00;56231.81;5091341;28;20278;-72
2023/12/06 04:21:35;;;;;;;;;;;;;;;-140.72;100.00;56262.28;5097118;28;20014;-71
2023/12/06 04:24:00;;;;;;;;;;;;;;;-140.72;100.00;56227.75;5095723;28;20385;-72
2023/12/06 04:26:25;;;;;;;;;;;;;;;-140.72;100.00;56213.53;5096354;28;19924;-72
2023/12/06 04:28:51;;;;;;;;;;;;;;;-140.72;100.00;56197.28;5101796;28;20362;-72
2023/12/06 04:31:16;;;;;;;;;;;;;;;-140.72;100.00;56219.63;5090917;28;20449;-72
2023/12/06 04:33:41;;;;;;;;;;;;;;;-140.72;100.00;56219.63;5096418;28;20338;-71
2023/12/06 04:36:07;;;;;;;;;;;;;;;-140.72;100.00;56207.44;5102497;28;19920;-71
2023/12/06 04:38:32;;;;;;;;;;;;;;;-140.72;100.00;56246.03;5098330;28;20366;-72
2023/12/06 04:40:57;;;;;;;;;;;;;;;-140.72;100.00;56241.97;5093582;28;19946;-72
2023/12/06 04:43:23;;;;;;;;;;;;;;;-140.72;100.00;56235.88;5075969;28;19946;-72
2023/12/06 04:45:48;;;;;;;;;;;;;;;-140.72;100.00;56248.06;5099165;28;19950;-73
2023/12/06 04:48:13;;;;;;;;;;;;;;;-140.72;100.00;56311.03;5094564;28;19945;-73
2023/12/06 04:50:38;;;;;;;;;;;;;;;-140.72;100.00;56264.31;5099415;28;19959;-72
2023/12/06 04:53:03;;;;;;;;;;;;;;;-140.72;100.00;56270.41;5092083;28;19923;-73
2023/12/06 04:55:29;;;;;;;;;;;;;;;-140.72;100.00;56264.31;5076440;28;19920;-72
2023/12/06 04:57:54;;;;;;;;;;;;;;;-140.72;100.00;56278.53;5092573;28;19956;-72
2023/12/06 05:00:21;;;;;;;;;;;;;;;-140.72;100.00;56282.59;5096331;28;19927;-72
2023/12/06 05:02:46;;;;;;;;;;;;;;;-140.72;100.00;56294.78;5092062;28;19920;-72
2023/12/06 05:05:12;;;;;;;;;;;;;;;-140.72;100.00;56302.91;5097046;28;20297;-72
2023/12/06 05:07:38;;;;;;;;;;;;;;;-140.72;100.00;56327.28;5098119;28;20345;-72
2023/12/06 05:10:04;;;;;;;;;;;;;;;-140.72;100.00;56311.03;5099505;28;20058;-72
2023/12/06 05:12:29;;;;;;;;;;;;;;;-140.72;100.00;56341.50;5097859;28;19977;-73
2023/12/06 05:14:54;;;;;;;;;;;;;;;-140.72;100.00;56343.53;5081378;28;20285;-72
2023/12/06 05:17:19;;;;;;;;;;;;;;;-140.72;100.00;56353.69;5107707;28;20326;-72
2023/12/06 05:19:44;;;;;;;;;;;;;;;-140.72;100.00;56384.16;5102013;28;20077;-73
2023/12/06 05:22:10;;;;;;;;;;;;;;;-140.72;100.00;56367.91;5091556;28;19926;-73
2023/12/06 05:24:49;;;;;;;;;;;;;;;-140.72;100.00;56398.38;5097712;28;19928;-73
2023/12/06 05:27:14;;;;;;;;;;;;;;;-140.72;100.00;56418.69;5105179;28;19920;-72
2023/12/06 05:29:44;;;;;;;;;;;;;;;-140.72;100.00;56410.56;5105077;28;19920;-73
2023/12/06 05:32:10;;;;;;;;;;;;;;;-140.72;100.00;56363.84;5097312;28;20019;-73
2023/12/06 05:34:35;;;;;;;;;;;;;;;-140.72;100.00;56420.72;5103809;28;19986;-73
2023/12/06 05:37:14;;;;;;;;;;;;;;;-140.72;100.00;56422.75;5087387;28;20374;-73
2023/12/06 05:39:41;;;;;;;;;;;;;;;-140.72;100.00;56422.75;5098867;28;19946;-72
2023/12/06 05:42:06;;;;;;;;;;;;;;;-140.72;100.00;56426.81;5102682;28;19927;-72
2023/12/06 05:44:32;;;;;;;;;;;;;;;-140.72;100.00;56424.78;5097761;28;19920;-72
2023/12/06 05:46:57;;;;;;;;;;;;;;;-140.72;100.00;56434.94;5095449;28;20019;-72
2023/12/06 05:49:54;;;;;;;;;;;;;;;-140.72;100.00;56414.63;5094831;28;20297;-71
2023/12/06 05:52:20;;;;;;;;;;;;;;;-140.72;100.00;56426.81;5082921;28;19932;-73
2023/12/06 05:54:45;;;;;;;;;;;;;;;-140.72;100.00;56426.81;5095082;28;19928;-73
2023/12/06 05:57:10;;;;;;;;;;;;;;;-140.72;100.00;56455.25;5096021;28;19919;-72
2023/12/06 05:59:36;;;;;;;;;;;;;;;-140.72;100.00;56447.13;5100964;28;20340;-73
2023/12/06 06:02:02;;;;;;;;;;;;;;;-140.72;100.00;56445.09;5097537;28;19923;-72
2023/12/06 06:04:27;;;;;;;;;;;;;;;-140.72;100.00;56465.41;5097793;28;19920;-72
2023/12/06 06:07:11;;;;;;;;;;;;;;;-140.72;100.00;56455.25;5103125;28;19930;-72
2023/12/06 06:09:37;;;;;;;;;;;;;;;-140.72;100.00;56436.97;5104524;28;20261;-73
2023/12/06 06:12:03;;;;;;;;;;;;;;;-140.72;100.00;56430.88;5102353;28;19928;-72
2023/12/06 06:14:29;;;;;;;;;;;;;;;-140.72;100.00;56422.75;5083404;28;20016;-73
2023/12/06 06:16:54;;;;;;;;;;;;;;;-140.72;100.00;56418.69;5096482;28;19920;-72
2023/12/06 06:19:19;;;;;;;;;;;;;;;-140.72;100.00;56355.72;5099508;28;20022;-72
2023/12/06 06:21:56;;;;;;;;;;;;;;;-140.72;100.00;56390.25;5098543;28;20002;-72
2023/12/06 06:24:22;;;;;;;;;;;;;;;-140.72;100.00;56329.31;5071297;28;20059;-72
2023/12/06 06:26:47;;;;;;;;;;;;;;;-140.72;100.00;56367.91;5106338;28;19959;-72
2023/12/06 06:29:12;;;;;;;;;;;;;;;-140.72;100.00;56286.66;5107948;28;20298;-72
2023/12/06 06:31:37;;;;;;;;;;;;;;;-140.72;100.00;56298.84;5077618;28;20369;-72
2023/12/06 06:34:04;;;;;;;;;;;;;;;-140.72;100.00;56304.94;5103158;28;19956;-72
2023/12/06 06:36:29;;;;;;;;;;;;;;;-140.72;100.00;56256.19;5095802;28;19920;-72
2023/12/06 06:39:07;;;;;;;;;;;;;;;-140.72;100.00;56244.00;5105480;28;20018;-72
2023/12/06 06:41:33;;;;;;;;;;;;;;;-140.72;100.00;56195.25;5085449;28;19935;-72
2023/12/06 06:43:58;;;;;;;;;;;;;;;-140.72;100.00;56235.88;5082069;28;19920;-72
2023/12/06 06:46:23;;;;;;;;;;;;;;;-140.72;100.00;56215.56;5098662;28;19920;-72
2023/12/06 06:49:02;;;;;;;;;;;;;;;-140.72;100.00;56191.19;5074955;28;19922;-72
2023/12/06 06:51:37;;;;;;;;;;;;;;;-140.72;100.00;56181.03;5074459;28;19927;-73
2023/12/06 06:54:09;;;;;;;;;;;;;;;-140.72;100.00;56183.06;5020796;28;1789943;-74
2023/12/06 06:56:34;;;;;;;;;;;;;;;-140.72;100.00;56146.50;5094888;28;19920;-76
2023/12/06 06:59:00;;;;;;;;;;;;;;;-140.72;100.00;56162.75;5084434;28;19996;-74
2023/12/06 07:01:25;;;;;;;;;;;;;;;-140.72;100.00;56158.69;5076901;28;19924;-73
2023/12/06 07:03:50;;;;;;;;;;;;;;;-140.72;100.00;56158.69;5078530;28;19920;-73
2023/12/06 07:06:15;;;;;;;;;;;;;;;-140.72;100.00;56154.63;5097784;28;19954;-73
2023/12/06 07:08:40;;;;;;;;;;;;;;;-140.72;100.00;56152.59;5093864;28;19920;-75
2023/12/06 07:11:07;;;;;;;;;;;;;;;-140.72;100.00;56152.59;5077794;28;19924;-73
2023/12/06 07:13:32;;;;;;;;;;;;;;;-140.72;100.00;56105.88;5089928;28;20023;-73
2023/12/06 07:15:58;;;;;;;;;;;;;;;-140.72;100.00;56107.91;5096568;28;20014;-73
2023/12/06 07:18:23;;;;;;;;;;;;;;;-140.72;100.00;56109.94;5089127;28;19920;-73
2023/12/06 07:20:48;;;;;;;;;;;;;;;-140.72;100.00;56128.22;5083629;28;19927;-73
2023/12/06 07:23:13;;;;;;;;;;;;;;;-140.72;100.00;56109.94;5086245;28;19921;-73
2023/12/06 07:25:39;;;;;;;;;;;;;;;-140.72;100.00;56099.78;5081746;28;19920;-73
2023/12/06 07:28:04;;;;;;;;;;;;;;;-140.72;100.00;56109.94;5098260;28;19934;-73
2023/12/06 07:30:29;;;;;;;;;;;;;;;-140.72;100.00;56083.53;5090090;28;20012;-72
2023/12/06 07:32:55;;;;;;;;;;;;;;;-140.72;100.00;56059.16;5092393;28;20229;-73
2023/12/06 07:35:20;;;;;;;;;;;;;;;-140.72;100.00;56075.41;5085492;28;19994;-72
2023/12/06 07:37:45;;;;;;;;;;;;;;;-140.72;100.00;56073.38;5098735;28;20007;-72
2023/12/06 07:40:11;;;;;;;;;;;;;;;-140.72;100.00;56044.97;5100560;28;19920;-72
2023/12/06 07:42:36;;;;;;;;;;;;;;;-140.72;100.00;56065.25;5088630;28;19915;-73
2023/12/06 07:45:01;;;;;;;;;;;;;;;-140.72;100.00;56067.28;5097754;28;19920;-72
2023/12/06 07:47:27;;;;;;;;;;;;;;;-140.72;100.00;56099.78;5089196;28;19920;-72
2023/12/06 07:49:52;;;;;;;;;;;;;;;-140.72;100.00;56040.91;5099347;28;20403;-72
2023/12/06 07:52:17;;;;;;;;;;;;;;;-140.72;100.00;56026.69;5091591;28;20398;-72
2023/12/06 07:54:43;;;;;;;;;;;;;;;-140.72;100.00;56006.38;5088329;28;19978;-73
2023/12/06 07:57:08;;;;;;;;;;;;;;;-140.72;100.00;56020.59;5085247;28;20377;-73
2023/12/06 07:59:34;;;;;;;;;;;;;;;-140.72;100.00;56026.69;5091676;28;19920;-73
2023/12/06 08:01:59;;;;;;;;;;;;;;;-140.72;100.00;56069.31;5100282;28;19961;-72
2023/12/06 08:04:24;;;;;;;;;;;;;;;-140.72;100.00;56081.50;5077765;28;19926;-73
2023/12/06 08:06:49;;;;;;;;;;;;;;;-140.72;100.00;56130.25;5089514;28;19987;-73
2023/12/06 08:09:17;;;;;;;;;;;;;;;-140.72;100.00;56081.50;5091520;28;20037;-73
2023/12/06 08:11:42;;;;;;;;;;;;;;;-140.72;100.00;56148.53;5088407;27;19927;-72
2023/12/06 08:14:08;;;;;;;;;;;;;;;-140.72;100.00;56111.97;5086063;28;19916;-74
2023/12/06 08:16:33;;;;;;;;;;;;;;;-140.72;100.00;56126.19;5088300;28;19974;-74
2023/12/06 08:18:58;;;;;;;;;;;;;;;-140.72;100.00;56138.38;5087974;28;19969;-74
2023/12/06 08:21:24;;;;;;;;;;;;;;;-140.72;100.00;56187.13;5078034;28;19946;-75
2023/12/06 08:23:49;;;;;;;;;;;;;;;-140.72;100.00;56166.81;5092585;28;19920;-73
2023/12/06 08:26:14;;;;;;;;;;;;;;;-140.72;100.00;56189.16;5089844;28;19943;-75
2023/12/06 08:28:39;;;;;;;;;;;;;;;-140.72;100.00;56199.31;5090061;28;20018;-73
2023/12/06 08:31:05;;;;;;;;;;;;;;;-140.72;100.00;56237.91;5073535;28;19932;-72
2023/12/06 08:33:31;;;;;;;;;;;;;;;-140.72;100.00;56239.94;5092400;28;19937;-73
2023/12/06 08:35:56;;;;;;;;;;;;;;;-140.72;100.00;56215.56;5103614;28;19920;-76
2023/12/06 08:38:21;;;;;;;;;;;;;;;-140.72;100.00;56260.25;5081548;28;19963;-73
2023/12/06 08:40:46;;;;;;;;;;;;;;;-140.72;100.00;56248.06;5092824;28;19924;-75
2023/12/06 08:43:12;;;;;;;;;;;;;;;-140.72;100.00;56298.84;5081900;28;19927;-73
2023/12/06 08:45:37;;;;;;;;;;;;;;;-140.72;100.00;56276.50;5089503;28;19920;-72
2023/12/06 08:48:04;;;;;;;;;;;;;;;-140.72;100.00;56290.72;5087828;28;19920;-73
2023/12/06 08:50:29;;;;;;;;;;;;;;;-140.72;100.00;56276.50;5107474;28;20040;-73
2023/12/06 08:52:54;;;;;;;;;;;;;;;-140.72;100.00;56321.19;5096309;28;19924;-73
2023/12/06 08:55:19;;;;;;;;;;;;;;;-140.72;100.00;56292.75;5097742;28;19923;-73
2023/12/06 08:57:45;;;;;;;;;;;;;;;-140.72;100.00;56302.91;5090985;28;20296;-73
2023/12/06 09:00:12;;;;;;;;;;;;;;;-140.72;100.00;56292.75;5094728;28;19935;-73
2023/12/06 09:02:37;;;;;;;;;;;;;;;-140.72;100.00;56262.28;5093502;28;20395;-73
2023/12/06 09:05:03;;;;;;;;;;;;;;;-140.72;100.00;56300.88;5097555;28;19920;-72
2023/12/06 09:07:28;;;;;;;;;;;;;;;-140.72;100.00;56306.97;5076760;28;19927;-73
2023/12/06 09:09:53;;;;;;;;;;;;;;;-140.72;100.00;56333.38;5083336;28;20014;-73
2023/12/06 09:12:18;;;;;;;;;;;;;;;-140.72;100.00;56264.31;5095000;28;20015;-73
2023/12/06 09:14:44;;;;;;;;;;;;;;;-140.72;100.00;56309.00;5079623;28;19924;-73
2023/12/06 09:17:09;;;;;;;;;;;;;;;-140.72;100.00;56333.38;5089990;28;19967;-73
2023/12/06 09:19:34;;;;;;;;;;;;;;;-140.72;100.00;56321.19;5091457;28;19967;-73
2023/12/06 09:21:59;;;;;;;;;;;;;;;-140.72;100.00;56361.81;5096254;28;19920;-74
2023/12/06 09:24:24;;;;;;;;;;;;;;;-140.72;100.00;56306.97;5087208;28;19924;-73
2023/12/06 09:26:50;;;;;;;;;;;;;;;-140.72;100.00;56319.16;5091138;28;19961;-72
2023/12/06 09:29:15;;;;;;;;;;;;;;;-140.72;100.00;56345.56;5074144;28;19929;-73
2023/12/06 09:31:40;;;;;;;;;;;;;;;-140.72;100.00;56315.09;5095873;28;19928;-77
2023/12/06 09:34:06;;;;;;;;;;;;;;;-140.72;100.00;56284.63;5086343;28;20598;-77
2023/12/06 09:36:32;;;;;;;;;;;;;;;-140.72;100.00;56282.59;5087421;28;20437;-77
2023/12/06 09:38:58;;;;;;;;;;;;;;;-140.72;100.00;56304.94;5084490;28;20109;-77
2023/12/06 09:41:26;;;;;;;;;;;;;;;-140.72;100.00;56258.22;5100562;28;20011;-77
2023/12/06 09:43:51;;;;;;;;;;;;;;;-140.72;100.00;56272.44;5104511;28;19920;-77
2023/12/06 09:46:17;;;;;;;;;;;;;;;-140.72;100.00;56254.16;5090189;28;19920;-77
2023/12/06 09:48:42;;;;;;;;;;;;;;;-140.72;100.00;56268.38;5100688;28;19920;-77
2023/12/06 09:51:07;;;;;;;;;;;;;;;-140.72;100.00;56213.53;5098212;28;19927;-77
2023/12/06 09:53:32;;;;;;;;;;;;;;;-140.72;100.00;56207.44;5084298;28;19920;-77
2023/12/06 09:55:58;;;;;;;;;;;;;;;-140.72;100.00;56205.41;5086099;28;20385;-77
2023/12/06 09:58:24;;;;;;;;;;;;;;;-140.72;100.00;56097.75;5097601;28;19998;-77
2023/12/06 10:00:49;;;;;;;;;;;;;;;-140.72;100.00;56059.16;5104977;28;20606;-77
2023/12/06 10:03:15;;;;;;;;;;;;;;;-140.72;100.00;56016.53;5085601;28;20035;-77
2023/12/06 10:05:41;;;;;;;;;;;;;;;-140.72;100.00;55941.38;5081977;28;19931;-77
2023/12/06 10:08:06;;;;;;;;;;;;;;;-140.72;100.00;55852.00;5097336;28;19920;-77
2023/12/06 10:10:32;;;;;;;;;;;;;;;-140.72;100.00;55845.94;5086650;28;19920;-78
2023/12/06 10:12:57;;;;;;;;;;;;;;;-140.72;100.00;55789.06;5082644;28;19924;-76
2023/12/06 10:15:23;;;;;;;;;;;;;;;-140.72;100.00;55744.38;5098484;28;19939;-76
2023/12/06 10:17:48;;;;;;;;;;;;;;;-140.72;100.00;55669.25;5079295;28;20026;-76
2023/12/06 10:20:14;;;;;;;;;;;;;;;-140.72;100.00;55545.38;5079836;28;19920;-76
2023/12/06 10:22:40;;;;;;;;;;;;;;;-140.72;100.00;55447.88;5091829;28;19997;-76
2023/12/06 10:25:06;;;;;;;;;;;;;;;-140.72;100.00;55403.22;5078105;28;19920;-76
2023/12/06 10:27:32;;;;;;;;;;;;;;;-140.72;100.00;55374.78;5092949;28;19920;-76
2023/12/06 10:29:57;;;;;;;;;;;;;;;-140.72;100.00;55324.03;5079687;28;19970;-76
2023/12/06 10:32:23;;;;;;;;;;;;;;;-140.72;100.00;55236.69;5091003;28;19929;-77
2023/12/06 10:34:48;;;;;;;;;;;;;;;-140.72;100.00;55129.09;5097227;28;20003;-77
2023/12/06 10:37:18;;;;;;;;;;;;;;;-140.72;100.00;55092.53;5093295;28;19920;-77
2023/12/06 10:39:47;;;;;;;;;;;;;;;-140.72;100.00;54991.00;5099349;28;19931;-77
2023/12/06 10:42:14;;;;;;;;;;;;;;;-140.72;100.00;54915.88;5104603;28;19972;-76
2023/12/06 10:44:40;;;;;;;;;;;;;;;-140.72;100.00;54820.47;5077099;28;20511;-77
2023/12/06 10:47:06;;;;;;;;;;;;;;;-140.72;100.00;54757.50;5081993;28;19920;-77
2023/12/06 10:49:32;;;;;;;;;;;;;;;-140.72;100.00;54712.84;5078257;28;20391;-76
2023/12/06 10:51:58;;;;;;;;;;;;;;;-140.72;100.00;54684.44;5095577;28;19939;-77
2023/12/06 10:54:25;;;;;;;;;;;;;;;-140.72;100.00;54684.44;5076395;28;19921;-73
2023/12/06 10:56:51;;;;;;;;;;;;;;;-140.72;100.00;54651.94;5075004;28;19924;-73
2023/12/06 10:59:17;;;;;;;;;;;;;;;-140.72;100.00;54605.25;5082405;28;19920;-73
2023/12/06 11:01:43;;;;;;;;;;;;;;;-140.72;100.00;54617.44;5072832;28;19924;-74
2023/12/06 11:04:09;;;;;;;;;;;;;;;-140.72;100.00;54609.31;5072225;28;20299;-74
2023/12/06 11:06:51;;;;;;;;;;;;;;;-140.72;100.00;54540.28;5054719;28;19927;-74
2023/12/06 11:09:29;;;;;;;;;;;;;;;-140.72;100.00;54570.72;5093515;28;19973;-73
2023/12/06 11:12:06;;;;;;;;;;;;;;;-140.72;100.00;54528.09;5073761;28;20270;-73
2023/12/06 11:14:50;;;;;;;;;;;;;;;-140.72;100.00;54515.91;5074162;28;20396;-74
2023/12/06 11:17:34;;;;;;;;;;;;;;;-140.72;100.00;54503.72;5060926;28;19917;-73
2023/12/06 11:19:59;;;;;;;;;;;;;;;-140.72;100.00;54499.66;5069635;28;19921;-73
2023/12/06 11:22:25;;;;;;;;;;;;;;;-140.72;100.00;54485.47;5081066;28;20472;-73
2023/12/06 11:24:51;;;;;;;;;;;;;;;-140.72;100.00;54495.63;5076008;28;19917;-73
2023/12/06 11:27:16;;;;;;;;;;;;;;;-140.72;100.00;54471.25;5070293;28;20065;-74
2023/12/06 11:29:42;;;;;;;;;;;;;;;-140.72;100.00;54469.22;5079503;28;20306;-73
2023/12/06 11:32:10;;;;;;;;;;;;;;;-140.72;100.00;54463.13;5066066;28;19917;-73
2023/12/06 11:34:36;;;;;;;;;;;;;;;-140.72;100.00;54412.38;5069436;28;19920;-73
2023/12/06 11:37:03;;;;;;;;;;;;;;;-140.72;100.00;54343.34;5072070;28;19994;-74
2023/12/06 11:39:29;;;;;;;;;;;;;;;-140.72;100.00;54319.00;5072753;28;19920;-72
2023/12/06 11:41:55;;;;;;;;;;;;;;;-140.72;100.00;54325.09;5080047;28;20634;-73
2023/12/06 11:44:20;;;;;;;;;;;;;;;-140.72;100.00;54243.88;5078434;28;20472;-73
2023/12/06 11:46:50;;;;;;;;;;;;;;;-140.72;100.00;54150.50;5084126;28;19927;-73
2023/12/06 11:49:15;;;;;;;;;;;;;;;-140.72;100.00;54116.00;5069134;28;19924;-72
2023/12/06 11:51:41;;;;;;;;;;;;;;;-140.72;100.00;54111.94;5062803;28;19916;-76
2023/12/06 11:54:06;;;;;;;;;;;;;;;-140.72;100.00;54107.88;5060856;28;19920;-72
2023/12/06 11:56:31;;;;;;;;;;;;;;;-140.72;100.00;54111.94;5071939;28;19931;-71
2023/12/06 11:58:57;;;;;;;;;;;;;;;-140.72;100.00;54101.78;5074139;28;20058;-72
2023/12/06 12:01:23;;;;;;;;;;;;;;;-140.72;100.00;54079.44;5072648;28;19955;-74
2023/12/06 12:03:49;;;;;;;;;;;;;;;-140.72;100.00;54103.81;5060692;28;19989;-72
2023/12/06 12:06:18;;;;;;;;;;;;;;;-140.72;100.00;54085.53;5076512;28;19924;-72
2023/12/06 12:08:43;;;;;;;;;;;;;;;-140.72;100.00;54061.19;5067334;28;19920;-72
2023/12/06 12:11:09;;;;;;;;;;;;;;;-140.72;100.00;54091.63;5070887;28;20220;-73
2023/12/06 12:13:38;;;;;;;;;;;;;;;-140.72;100.00;54120.03;5069475;28;19924;-73